sensor_id;sensor_type;location;lat;lon;timestamp;P1;durP1;ratioP1;P2;durP2;ratioP2
51194;SDS011;37259;49.972;19.850;2022-09-09T00:00:24;3.6;;;5.6;;
51194;SDS011;37259;49.972;19.850;2022-09-09T00:01:27;3.6;;;5.6;;
51194;SDS011;37259;49.972;19.850;2022-09-09T00:02:24;3.6;;;5.6;;
51194;SDS011;37259;49.972;19.850;2022-09-09T00:03:24;3.6;;;5.6;;
51194;SDS011;37259;49.972;19.850;2022-09-09T00:04:25;3.6;;;5.6;;
51194;SDS011;37259;49.972;19.850;2022-09-09T00:05:26;3.6;;;5.6;;
51194;SDS011;37259;49.972;19.850;2022-09-09T00:06:24;3.6;;;5.6;;
51194;SDS011;37259;49.972;19.850;2022-09-09T00:07:25;3.6;;;5.6;;
51194;SDS011;37259;49.972;19.850;2022-09-09T00:08:25;3.6;;;5.6;;
51194;SDS011;37259;49.972;19.850;2022-09-09T00:09:24;3.6;;;5.6;;
51194;SDS011;37259;49.972;19.850;2022-09-09T00:10:25;3.6;;;5.6;;
51194;SDS011;37259;49.972;19.850;2022-09-09T00:11:24;3.6;;;5.6;;
51194;SDS011;37259;49.972;19.850;2022-09-09T00:12:25;3.6;;;5.6;;
51194;SDS011;37259;49.972;19.850;2022-09-09T00:13:24;3.6;;;5.6;;
51194;SDS011;37259;49.972;19.850;2022-09-09T00:14:25;3.6;;;5.6;;
51194;SDS011;37259;49.972;19.850;2022-09-09T00:15:24;3.6;;;5.6;;
51194;SDS011;37259;49.972;19.850;2022-09-09T00:16:24;3.6;;;5.6;;
51194;SDS011;37259;49.972;19.850;2022-09-09T00:17:26;3.6;;;5.6;;
51194;SDS011;37259;49.972;19.850;2022-09-09T00:18:24;3.6;;;5.6;;
51194;SDS011;37259;49.972;19.850;2022-09-09T00:19:24;3.6;;;5.6;;
51194;SDS011;37259;49.972;19.850;2022-09-09T00:20:25;3.6;;;5.6;;
51194;SDS011;37259;49.972;19.850;2022-09-09T00:21:24;3.6;;;5.6;;
51194;SDS011;37259;49.972;19.850;2022-09-09T00:23:24;3.6;;;5.6;;
51194;SDS011;37259;49.972;19.850;2022-09-09T00:24:24;3.6;;;5.6;;
51194;SDS011;37259;49.972;19.850;2022-09-09T00:25:31;3.8;;;7.3;;
51194;SDS011;37259;49.972;19.850;2022-09-09T00:26:25;3.8;;;7.3;;
51194;SDS011;37259;49.972;19.850;2022-09-09T00:27:25;3.8;;;7.3;;
51194;SDS011;37259;49.972;19.850;2022-09-09T00:28:24;3.8;;;7.3;;
51194;SDS011;37259;49.972;19.850;2022-09-09T00:29:26;3.8;;;7.3;;
51194;SDS011;37259;49.972;19.850;2022-09-09T00:30:24;3.8;;;7.3;;
51194;SDS011;37259;49.972;19.850;2022-09-09T00:31:25;3.8;;;7.3;;
51194;SDS011;37259;49.972;19.850;2022-09-09T00:32:24;3.8;;;7.3;;
51194;SDS011;37259;49.972;19.850;2022-09-09T00:33:24;3.8;;;7.3;;
51194;SDS011;37259;49.972;19.850;2022-09-09T00:34:24;3.8;;;7.3;;
51194;SDS011;37259;49.972;19.850;2022-09-09T00:35:24;3.8;;;7.3;;
51194;SDS011;37259;49.972;19.850;2022-09-09T00:36:24;3.8;;;7.3;;
51194;SDS011;37259;49.972;19.850;2022-09-09T00:37:24;3.8;;;7.3;;
51194;SDS011;37259;49.972;19.850;2022-09-09T00:38:24;3.8;;;7.3;;
51194;SDS011;37259;49.972;19.850;2022-09-09T00:39:25;3.8;;;7.3;;
51194;SDS011;37259;49.972;19.850;2022-09-09T00:40:25;3.8;;;7.3;;
51194;SDS011;37259;49.972;19.850;2022-09-09T00:41:26;3.8;;;7.3;;
51194;SDS011;37259;49.972;19.850;2022-09-09T00:42:24;3.8;;;7.3;;
51194;SDS011;37259;49.972;19.850;2022-09-09T00:43:26;3.8;;;7.3;;
51194;SDS011;37259;49.972;19.850;2022-09-09T00:44:25;3.8;;;7.3;;
51194;SDS011;37259;49.972;19.850;2022-09-09T00:45:29;3.8;;;7.3;;
51194;SDS011;37259;49.972;19.850;2022-09-09T00:46:28;3.8;;;7.3;;
51194;SDS011;37259;49.972;19.850;2022-09-09T00:47:27;3.8;;;7.3;;
51194;SDS011;37259;49.972;19.850;2022-09-09T00:48:24;3.8;;;7.3;;
51194;SDS011;37259;49.972;19.850;2022-09-09T00:49:26;3.8;;;7.3;;
51194;SDS011;37259;49.972;19.850;2022-09-09T00:50:27;3.8;;;7.3;;
51194;SDS011;37259;49.972;19.850;2022-09-09T00:51:25;3.8;;;7.3;;
51194;SDS011;37259;49.972;19.850;2022-09-09T00:52:26;3.8;;;7.3;;
51194;SDS011;37259;49.972;19.850;2022-09-09T00:53:28;3.8;;;7.3;;
51194;SDS011;37259;49.972;19.850;2022-09-09T00:54:27;3.8;;;7.3;;
51194;SDS011;37259;49.972;19.850;2022-09-09T00:55:25;4.7;;;8.5;;
51194;SDS011;37259;49.972;19.850;2022-09-09T00:56:24;4.7;;;8.5;;
51194;SDS011;37259;49.972;19.850;2022-09-09T00:57:25;4.7;;;8.5;;
51194;SDS011;37259;49.972;19.850;2022-09-09T00:58:23;4.7;;;8.5;;
51194;SDS011;37259;49.972;19.850;2022-09-09T00:59:24;4.7;;;8.5;;
51194;SDS011;37259;49.972;19.850;2022-09-09T01:00:24;4.7;;;8.5;;
51194;SDS011;37259;49.972;19.850;2022-09-09T01:01:23;4.7;;;8.5;;
51194;SDS011;37259;49.972;19.850;2022-09-09T01:02:27;4.7;;;8.5;;
51194;SDS011;37259;49.972;19.850;2022-09-09T01:03:26;4.7;;;8.5;;
51194;SDS011;37259;49.972;19.850;2022-09-09T01:04:25;4.7;;;8.5;;
51194;SDS011;37259;49.972;19.850;2022-09-09T01:05:25;4.7;;;8.5;;
51194;SDS011;37259;49.972;19.850;2022-09-09T01:06:25;4.7;;;8.5;;
51194;SDS011;37259;49.972;19.850;2022-09-09T01:07:23;4.7;;;8.5;;
51194;SDS011;37259;49.972;19.850;2022-09-09T01:08:28;4.7;;;8.5;;
51194;SDS011;37259;49.972;19.850;2022-09-09T01:09:24;4.7;;;8.5;;
51194;SDS011;37259;49.972;19.850;2022-09-09T01:10:26;4.7;;;8.5;;
51194;SDS011;37259;49.972;19.850;2022-09-09T01:11:24;4.7;;;8.5;;
51194;SDS011;37259;49.972;19.850;2022-09-09T01:12:25;4.7;;;8.5;;
51194;SDS011;37259;49.972;19.850;2022-09-09T01:13:24;4.7;;;8.5;;
51194;SDS011;37259;49.972;19.850;2022-09-09T01:14:28;4.7;;;8.5;;
51194;SDS011;37259;49.972;19.850;2022-09-09T01:15:24;4.7;;;8.5;;
51194;SDS011;37259;49.972;19.850;2022-09-09T01:16:23;4.7;;;8.5;;
51194;SDS011;37259;49.972;19.850;2022-09-09T01:17:24;4.7;;;8.5;;
51194;SDS011;37259;49.972;19.850;2022-09-09T01:18:23;4.7;;;8.5;;
51194;SDS011;37259;49.972;19.850;2022-09-09T01:19:24;4.7;;;8.5;;
51194;SDS011;37259;49.972;19.850;2022-09-09T01:20:24;4.7;;;8.5;;
51194;SDS011;37259;49.972;19.850;2022-09-09T01:21:26;4.7;;;8.5;;
51194;SDS011;37259;49.972;19.850;2022-09-09T01:22:26;4.7;;;8.5;;
51194;SDS011;37259;49.972;19.850;2022-09-09T01:23:28;4.7;;;8.5;;
51194;SDS011;37259;49.972;19.850;2022-09-09T01:24:25;4.7;;;8.5;;
51194;SDS011;37259;49.972;19.850;2022-09-09T01:26:25;3.4;;;5.5;;
51194;SDS011;37259;49.972;19.850;2022-09-09T01:26:28;3.4;;;5.5;;
51194;SDS011;37259;49.972;19.850;2022-09-09T01:27:23;3.4;;;5.5;;
51194;SDS011;37259;49.972;19.850;2022-09-09T01:28:25;3.4;;;5.5;;
51194;SDS011;37259;49.972;19.850;2022-09-09T01:29:24;3.4;;;5.5;;
51194;SDS011;37259;49.972;19.850;2022-09-09T01:30:23;3.4;;;5.5;;
51194;SDS011;37259;49.972;19.850;2022-09-09T01:31:26;3.4;;;5.5;;
51194;SDS011;37259;49.972;19.850;2022-09-09T01:32:41;3.4;;;5.5;;
51194;SDS011;37259;49.972;19.850;2022-09-09T01:33:23;3.4;;;5.5;;
51194;SDS011;37259;49.972;19.850;2022-09-09T01:34:25;3.4;;;5.5;;
51194;SDS011;37259;49.972;19.850;2022-09-09T01:35:27;3.4;;;5.5;;
51194;SDS011;37259;49.972;19.850;2022-09-09T01:36:25;3.4;;;5.5;;
51194;SDS011;37259;49.972;19.850;2022-09-09T01:37:23;3.4;;;5.5;;
51194;SDS011;37259;49.972;19.850;2022-09-09T01:38:23;3.4;;;5.5;;
51194;SDS011;37259;49.972;19.850;2022-09-09T01:39:23;3.4;;;5.5;;
51194;SDS011;37259;49.972;19.850;2022-09-09T01:40:24;3.4;;;5.5;;
51194;SDS011;37259;49.972;19.850;2022-09-09T01:41:23;3.4;;;5.5;;
51194;SDS011;37259;49.972;19.850;2022-09-09T01:42:23;3.4;;;5.5;;
51194;SDS011;37259;49.972;19.850;2022-09-09T01:43:23;3.4;;;5.5;;
51194;SDS011;37259;49.972;19.850;2022-09-09T01:44:24;3.4;;;5.5;;
51194;SDS011;37259;49.972;19.850;2022-09-09T01:45:24;3.4;;;5.5;;
51194;SDS011;37259;49.972;19.850;2022-09-09T01:46:23;3.4;;;5.5;;
51194;SDS011;37259;49.972;19.850;2022-09-09T01:47:23;3.4;;;5.5;;
51194;SDS011;37259;49.972;19.850;2022-09-09T01:48:24;3.4;;;5.5;;
51194;SDS011;37259;49.972;19.850;2022-09-09T01:49:23;3.4;;;5.5;;
51194;SDS011;37259;49.972;19.850;2022-09-09T01:50:23;3.4;;;5.5;;
51194;SDS011;37259;49.972;19.850;2022-09-09T01:51:23;3.4;;;5.5;;
51194;SDS011;37259;49.972;19.850;2022-09-09T01:52:23;3.4;;;5.5;;
51194;SDS011;37259;49.972;19.850;2022-09-09T01:53:23;3.4;;;5.5;;
51194;SDS011;37259;49.972;19.850;2022-09-09T01:54:24;3.4;;;5.5;;
51194;SDS011;37259;49.972;19.850;2022-09-09T01:55:26;4.1;;;6.4;;
51194;SDS011;37259;49.972;19.850;2022-09-09T01:56:27;4.1;;;6.4;;
51194;SDS011;37259;49.972;19.850;2022-09-09T01:57:24;4.1;;;6.4;;
51194;SDS011;37259;49.972;19.850;2022-09-09T01:58:26;4.1;;;6.4;;
51194;SDS011;37259;49.972;19.850;2022-09-09T01:59:26;4.1;;;6.4;;
51194;SDS011;37259;49.972;19.850;2022-09-09T02:00:23;4.1;;;6.4;;
51194;SDS011;37259;49.972;19.850;2022-09-09T02:01:25;4.1;;;6.4;;
51194;SDS011;37259;49.972;19.850;2022-09-09T02:02:24;4.1;;;6.4;;
51194;SDS011;37259;49.972;19.850;2022-09-09T02:03:24;4.1;;;6.4;;
51194;SDS011;37259;49.972;19.850;2022-09-09T02:04:27;4.1;;;6.4;;
51194;SDS011;37259;49.972;19.850;2022-09-09T02:05:27;4.1;;;6.4;;
51194;SDS011;37259;49.972;19.850;2022-09-09T02:06:25;4.1;;;6.4;;
51194;SDS011;37259;49.972;19.850;2022-09-09T02:07:28;4.1;;;6.4;;
51194;SDS011;37259;49.972;19.850;2022-09-09T02:08:24;4.1;;;6.4;;
51194;SDS011;37259;49.972;19.850;2022-09-09T02:09:24;4.1;;;6.4;;
51194;SDS011;37259;49.972;19.850;2022-09-09T02:10:24;4.1;;;6.4;;
51194;SDS011;37259;49.972;19.850;2022-09-09T02:11:24;4.1;;;6.4;;
51194;SDS011;37259;49.972;19.850;2022-09-09T02:12:23;4.1;;;6.4;;
51194;SDS011;37259;49.972;19.850;2022-09-09T02:13:23;4.1;;;6.4;;
51194;SDS011;37259;49.972;19.850;2022-09-09T02:14:24;4.1;;;6.4;;
51194;SDS011;37259;49.972;19.850;2022-09-09T02:15:28;4.1;;;6.4;;
51194;SDS011;37259;49.972;19.850;2022-09-09T02:23:23;4.1;;;6.4;;
51194;SDS011;37259;49.972;19.850;2022-09-09T02:24:23;4.1;;;6.4;;
51194;SDS011;37259;49.972;19.850;2022-09-09T02:25:24;4.9;;;7.7;;
51194;SDS011;37259;49.972;19.850;2022-09-09T02:26:23;4.9;;;7.7;;
51194;SDS011;37259;49.972;19.850;2022-09-09T02:27:23;4.9;;;7.7;;
51194;SDS011;37259;49.972;19.850;2022-09-09T02:28:24;4.9;;;7.7;;
51194;SDS011;37259;49.972;19.850;2022-09-09T02:29:25;4.9;;;7.7;;
51194;SDS011;37259;49.972;19.850;2022-09-09T02:30:23;4.9;;;7.7;;
51194;SDS011;37259;49.972;19.850;2022-09-09T02:31:24;4.9;;;7.7;;
51194;SDS011;37259;49.972;19.850;2022-09-09T02:32:23;4.9;;;7.7;;
51194;SDS011;37259;49.972;19.850;2022-09-09T02:33:24;4.9;;;7.7;;
51194;SDS011;37259;49.972;19.850;2022-09-09T02:34:23;4.9;;;7.7;;
51194;SDS011;37259;49.972;19.850;2022-09-09T02:35:23;4.9;;;7.7;;
51194;SDS011;37259;49.972;19.850;2022-09-09T02:36:24;4.9;;;7.7;;
51194;SDS011;37259;49.972;19.850;2022-09-09T02:37:24;4.9;;;7.7;;
51194;SDS011;37259;49.972;19.850;2022-09-09T02:38:24;4.9;;;7.7;;
51194;SDS011;37259;49.972;19.850;2022-09-09T02:39:23;4.9;;;7.7;;
51194;SDS011;37259;49.972;19.850;2022-09-09T02:40:23;4.9;;;7.7;;
51194;SDS011;37259;49.972;19.850;2022-09-09T02:41:24;4.9;;;7.7;;
51194;SDS011;37259;49.972;19.850;2022-09-09T02:42:23;4.9;;;7.7;;
51194;SDS011;37259;49.972;19.850;2022-09-09T02:43:23;4.9;;;7.7;;
51194;SDS011;37259;49.972;19.850;2022-09-09T02:44:23;4.9;;;7.7;;
51194;SDS011;37259;49.972;19.850;2022-09-09T02:45:24;4.9;;;7.7;;
51194;SDS011;37259;49.972;19.850;2022-09-09T02:46:27;4.9;;;7.7;;
51194;SDS011;37259;49.972;19.850;2022-09-09T02:47:25;4.9;;;7.7;;
51194;SDS011;37259;49.972;19.850;2022-09-09T02:48:25;4.9;;;7.7;;
51194;SDS011;37259;49.972;19.850;2022-09-09T02:49:25;4.9;;;7.7;;
51194;SDS011;37259;49.972;19.850;2022-09-09T02:50:25;4.9;;;7.7;;
51194;SDS011;37259;49.972;19.850;2022-09-09T02:51:24;4.9;;;7.7;;
51194;SDS011;37259;49.972;19.850;2022-09-09T02:52:26;4.9;;;7.7;;
51194;SDS011;37259;49.972;19.850;2022-09-09T02:53:24;4.9;;;7.7;;
51194;SDS011;37259;49.972;19.850;2022-09-09T02:54:25;4.9;;;7.7;;
51194;SDS011;37259;49.972;19.850;2022-09-09T02:55:24;4.9;;;6.9;;
51194;SDS011;37259;49.972;19.850;2022-09-09T02:56:24;4.9;;;6.9;;
51194;SDS011;37259;49.972;19.850;2022-09-09T02:57:24;4.9;;;6.9;;
51194;SDS011;37259;49.972;19.850;2022-09-09T02:58:23;4.9;;;6.9;;
51194;SDS011;37259;49.972;19.850;2022-09-09T02:59:24;4.9;;;6.9;;
51194;SDS011;37259;49.972;19.850;2022-09-09T03:00:24;4.9;;;6.9;;
51194;SDS011;37259;49.972;19.850;2022-09-09T03:01:23;4.9;;;6.9;;
51194;SDS011;37259;49.972;19.850;2022-09-09T03:02:23;4.9;;;6.9;;
51194;SDS011;37259;49.972;19.850;2022-09-09T03:03:23;4.9;;;6.9;;
51194;SDS011;37259;49.972;19.850;2022-09-09T03:04:23;4.9;;;6.9;;
51194;SDS011;37259;49.972;19.850;2022-09-09T03:05:24;4.9;;;6.9;;
51194;SDS011;37259;49.972;19.850;2022-09-09T03:06:23;4.9;;;6.9;;
51194;SDS011;37259;49.972;19.850;2022-09-09T03:07:23;4.9;;;6.9;;
51194;SDS011;37259;49.972;19.850;2022-09-09T03:08:23;4.9;;;6.9;;
51194;SDS011;37259;49.972;19.850;2022-09-09T03:09:23;4.9;;;6.9;;
51194;SDS011;37259;49.972;19.850;2022-09-09T03:10:23;4.9;;;6.9;;
51194;SDS011;37259;49.972;19.850;2022-09-09T03:11:23;4.9;;;6.9;;
51194;SDS011;37259;49.972;19.850;2022-09-09T03:12:23;4.9;;;6.9;;
51194;SDS011;37259;49.972;19.850;2022-09-09T03:13:23;4.9;;;6.9;;
51194;SDS011;37259;49.972;19.850;2022-09-09T03:14:23;4.9;;;6.9;;
51194;SDS011;37259;49.972;19.850;2022-09-09T03:15:24;4.9;;;6.9;;
51194;SDS011;37259;49.972;19.850;2022-09-09T03:16:23;4.9;;;6.9;;
51194;SDS011;37259;49.972;19.850;2022-09-09T03:17:23;4.9;;;6.9;;
51194;SDS011;37259;49.972;19.850;2022-09-09T03:18:23;4.9;;;6.9;;
51194;SDS011;37259;49.972;19.850;2022-09-09T03:19:23;4.9;;;6.9;;
51194;SDS011;37259;49.972;19.850;2022-09-09T03:20:23;4.9;;;6.9;;
51194;SDS011;37259;49.972;19.850;2022-09-09T03:21:23;4.9;;;6.9;;
51194;SDS011;37259;49.972;19.850;2022-09-09T03:22:23;4.9;;;6.9;;
51194;SDS011;37259;49.972;19.850;2022-09-09T03:23:23;4.9;;;6.9;;
51194;SDS011;37259;49.972;19.850;2022-09-09T03:24:23;4.9;;;6.9;;
51194;SDS011;37259;49.972;19.850;2022-09-09T03:25:23;4.9;;;7.8;;
51194;SDS011;37259;49.972;19.850;2022-09-09T03:26:23;4.9;;;7.8;;
51194;SDS011;37259;49.972;19.850;2022-09-09T03:27:23;4.9;;;7.8;;
51194;SDS011;37259;49.972;19.850;2022-09-09T03:28:23;4.9;;;7.8;;
51194;SDS011;37259;49.972;19.850;2022-09-09T03:29:23;4.9;;;7.8;;
51194;SDS011;37259;49.972;19.850;2022-09-09T03:30:24;4.9;;;7.8;;
51194;SDS011;37259;49.972;19.850;2022-09-09T03:31:23;4.9;;;7.8;;
51194;SDS011;37259;49.972;19.850;2022-09-09T03:32:23;4.9;;;7.8;;
51194;SDS011;37259;49.972;19.850;2022-09-09T03:33:23;4.9;;;7.8;;
51194;SDS011;37259;49.972;19.850;2022-09-09T03:34:23;4.9;;;7.8;;
51194;SDS011;37259;49.972;19.850;2022-09-09T03:35:23;4.9;;;7.8;;
51194;SDS011;37259;49.972;19.850;2022-09-09T03:36:23;4.9;;;7.8;;
51194;SDS011;37259;49.972;19.850;2022-09-09T03:37:23;4.9;;;7.8;;
51194;SDS011;37259;49.972;19.850;2022-09-09T03:38:24;4.9;;;7.8;;
51194;SDS011;37259;49.972;19.850;2022-09-09T03:39:23;4.9;;;7.8;;
51194;SDS011;37259;49.972;19.850;2022-09-09T03:40:23;4.9;;;7.8;;
51194;SDS011;37259;49.972;19.850;2022-09-09T03:41:23;4.9;;;7.8;;
51194;SDS011;37259;49.972;19.850;2022-09-09T03:42:23;4.9;;;7.8;;
51194;SDS011;37259;49.972;19.850;2022-09-09T03:43:24;4.9;;;7.8;;
51194;SDS011;37259;49.972;19.850;2022-09-09T03:44:23;4.9;;;7.8;;
51194;SDS011;37259;49.972;19.850;2022-09-09T03:45:23;4.9;;;7.8;;
51194;SDS011;37259;49.972;19.850;2022-09-09T03:46:24;4.9;;;7.8;;
51194;SDS011;37259;49.972;19.850;2022-09-09T03:47:23;4.9;;;7.8;;
51194;SDS011;37259;49.972;19.850;2022-09-09T03:48:24;4.9;;;7.8;;
51194;SDS011;37259;49.972;19.850;2022-09-09T03:49:23;4.9;;;7.8;;
51194;SDS011;37259;49.972;19.850;2022-09-09T03:50:23;4.9;;;7.8;;
51194;SDS011;37259;49.972;19.850;2022-09-09T03:51:23;4.9;;;7.8;;
51194;SDS011;37259;49.972;19.850;2022-09-09T03:52:23;4.9;;;7.8;;
51194;SDS011;37259;49.972;19.850;2022-09-09T03:53:23;4.9;;;7.8;;
51194;SDS011;37259;49.972;19.850;2022-09-09T03:54:23;4.9;;;7.8;;
51194;SDS011;37259;49.972;19.850;2022-09-09T03:55:23;5.2;;;8.8;;
51194;SDS011;37259;49.972;19.850;2022-09-09T03:56:23;5.2;;;8.8;;
51194;SDS011;37259;49.972;19.850;2022-09-09T03:57:23;5.2;;;8.8;;
51194;SDS011;37259;49.972;19.850;2022-09-09T03:58:23;5.2;;;8.8;;
51194;SDS011;37259;49.972;19.850;2022-09-09T03:59:23;5.2;;;8.8;;
51194;SDS011;37259;49.972;19.850;2022-09-09T04:00:23;5.2;;;8.8;;
51194;SDS011;37259;49.972;19.850;2022-09-09T04:01:23;5.2;;;8.8;;
51194;SDS011;37259;49.972;19.850;2022-09-09T04:02:23;5.2;;;8.8;;
51194;SDS011;37259;49.972;19.850;2022-09-09T04:03:24;5.2;;;8.8;;
51194;SDS011;37259;49.972;19.850;2022-09-09T04:04:24;5.2;;;8.8;;
51194;SDS011;37259;49.972;19.850;2022-09-09T04:05:24;5.2;;;8.8;;
51194;SDS011;37259;49.972;19.850;2022-09-09T04:06:23;5.2;;;8.8;;
51194;SDS011;37259;49.972;19.850;2022-09-09T04:07:23;5.2;;;8.8;;
51194;SDS011;37259;49.972;19.850;2022-09-09T04:08:23;5.2;;;8.8;;
51194;SDS011;37259;49.972;19.850;2022-09-09T04:09:23;5.2;;;8.8;;
51194;SDS011;37259;49.972;19.850;2022-09-09T04:10:23;5.2;;;8.8;;
51194;SDS011;37259;49.972;19.850;2022-09-09T04:11:23;5.2;;;8.8;;
51194;SDS011;37259;49.972;19.850;2022-09-09T04:12:23;5.2;;;8.8;;
51194;SDS011;37259;49.972;19.850;2022-09-09T04:13:23;5.2;;;8.8;;
51194;SDS011;37259;49.972;19.850;2022-09-09T04:14:24;5.2;;;8.8;;
51194;SDS011;37259;49.972;19.850;2022-09-09T04:15:24;5.2;;;8.8;;
51194;SDS011;37259;49.972;19.850;2022-09-09T04:16:23;5.2;;;8.8;;
51194;SDS011;37259;49.972;19.850;2022-09-09T04:17:23;5.2;;;8.8;;
51194;SDS011;37259;49.972;19.850;2022-09-09T04:18:24;5.2;;;8.8;;
51194;SDS011;37259;49.972;19.850;2022-09-09T04:19:23;5.2;;;8.8;;
51194;SDS011;37259;49.972;19.850;2022-09-09T04:20:23;5.2;;;8.8;;
51194;SDS011;37259;49.972;19.850;2022-09-09T04:21:23;5.2;;;8.8;;
51194;SDS011;37259;49.972;19.850;2022-09-09T04:22:23;5.2;;;8.8;;
51194;SDS011;37259;49.972;19.850;2022-09-09T04:23:24;5.2;;;8.8;;
51194;SDS011;37259;49.972;19.850;2022-09-09T04:24:23;5.2;;;8.8;;
51194;SDS011;37259;49.972;19.850;2022-09-09T04:25:23;5.6;;;8.3;;
51194;SDS011;37259;49.972;19.850;2022-09-09T04:26:23;5.6;;;8.3;;
51194;SDS011;37259;49.972;19.850;2022-09-09T04:27:23;5.6;;;8.3;;
51194;SDS011;37259;49.972;19.850;2022-09-09T04:28:25;5.6;;;8.3;;
51194;SDS011;37259;49.972;19.850;2022-09-09T04:29:23;5.6;;;8.3;;
51194;SDS011;37259;49.972;19.850;2022-09-09T04:30:24;5.6;;;8.3;;
51194;SDS011;37259;49.972;19.850;2022-09-09T04:31:23;5.6;;;8.3;;
51194;SDS011;37259;49.972;19.850;2022-09-09T04:32:23;5.6;;;8.3;;
51194;SDS011;37259;49.972;19.850;2022-09-09T04:33:24;5.6;;;8.3;;
51194;SDS011;37259;49.972;19.850;2022-09-09T04:34:23;5.6;;;8.3;;
51194;SDS011;37259;49.972;19.850;2022-09-09T04:35:23;5.6;;;8.3;;
51194;SDS011;37259;49.972;19.850;2022-09-09T04:36:23;5.6;;;8.3;;
51194;SDS011;37259;49.972;19.850;2022-09-09T04:37:23;5.6;;;8.3;;
51194;SDS011;37259;49.972;19.850;2022-09-09T04:38:23;5.6;;;8.3;;
51194;SDS011;37259;49.972;19.850;2022-09-09T04:39:23;5.6;;;8.3;;
51194;SDS011;37259;49.972;19.850;2022-09-09T04:40:23;5.6;;;8.3;;
51194;SDS011;37259;49.972;19.850;2022-09-09T04:41:23;5.6;;;8.3;;
51194;SDS011;37259;49.972;19.850;2022-09-09T04:42:23;5.6;;;8.3;;
51194;SDS011;37259;49.972;19.850;2022-09-09T04:43:23;5.6;;;8.3;;
51194;SDS011;37259;49.972;19.850;2022-09-09T04:44:23;5.6;;;8.3;;
51194;SDS011;37259;49.972;19.850;2022-09-09T04:45:23;5.6;;;8.3;;
51194;SDS011;37259;49.972;19.850;2022-09-09T04:46:23;5.6;;;8.3;;
51194;SDS011;37259;49.972;19.850;2022-09-09T04:47:23;5.6;;;8.3;;
51194;SDS011;37259;49.972;19.850;2022-09-09T04:48:23;5.6;;;8.3;;
51194;SDS011;37259;49.972;19.850;2022-09-09T04:49:23;5.6;;;8.3;;
51194;SDS011;37259;49.972;19.850;2022-09-09T04:50:23;5.6;;;8.3;;
51194;SDS011;37259;49.972;19.850;2022-09-09T04:51:23;5.6;;;8.3;;
51194;SDS011;37259;49.972;19.850;2022-09-09T04:52:23;5.6;;;8.3;;
51194;SDS011;37259;49.972;19.850;2022-09-09T04:53:24;5.6;;;8.3;;
51194;SDS011;37259;49.972;19.850;2022-09-09T04:54:23;5.6;;;8.3;;
51194;SDS011;37259;49.972;19.850;2022-09-09T04:55:23;5.4;;;9;;
51194;SDS011;37259;49.972;19.850;2022-09-09T04:56:23;5.4;;;9;;
51194;SDS011;37259;49.972;19.850;2022-09-09T04:57:23;5.4;;;9;;
51194;SDS011;37259;49.972;19.850;2022-09-09T04:58:23;5.4;;;9;;
51194;SDS011;37259;49.972;19.850;2022-09-09T04:59:23;5.4;;;9;;
51194;SDS011;37259;49.972;19.850;2022-09-09T05:00:23;5.4;;;9;;
51194;SDS011;37259;49.972;19.850;2022-09-09T05:01:23;5.4;;;9;;
51194;SDS011;37259;49.972;19.850;2022-09-09T05:02:23;5.4;;;9;;
51194;SDS011;37259;49.972;19.850;2022-09-09T05:03:23;5.4;;;9;;
51194;SDS011;37259;49.972;19.850;2022-09-09T05:04:23;5.4;;;9;;
51194;SDS011;37259;49.972;19.850;2022-09-09T05:05:23;5.4;;;9;;
51194;SDS011;37259;49.972;19.850;2022-09-09T05:06:23;5.4;;;9;;
51194;SDS011;37259;49.972;19.850;2022-09-09T05:07:23;5.4;;;9;;
51194;SDS011;37259;49.972;19.850;2022-09-09T05:08:23;5.4;;;9;;
51194;SDS011;37259;49.972;19.850;2022-09-09T05:09:23;5.4;;;9;;
51194;SDS011;37259;49.972;19.850;2022-09-09T05:10:23;5.4;;;9;;
51194;SDS011;37259;49.972;19.850;2022-09-09T05:11:24;5.4;;;9;;
51194;SDS011;37259;49.972;19.850;2022-09-09T05:12:23;5.4;;;9;;
51194;SDS011;37259;49.972;19.850;2022-09-09T05:13:23;5.4;;;9;;
51194;SDS011;37259;49.972;19.850;2022-09-09T05:14:23;5.4;;;9;;
51194;SDS011;37259;49.972;19.850;2022-09-09T05:15:23;5.4;;;9;;
51194;SDS011;37259;49.972;19.850;2022-09-09T05:16:23;5.4;;;9;;
51194;SDS011;37259;49.972;19.850;2022-09-09T05:17:23;5.4;;;9;;
51194;SDS011;37259;49.972;19.850;2022-09-09T05:18:23;5.4;;;9;;
51194;SDS011;37259;49.972;19.850;2022-09-09T05:19:23;5.4;;;9;;
51194;SDS011;37259;49.972;19.850;2022-09-09T05:20:23;5.4;;;9;;
51194;SDS011;37259;49.972;19.850;2022-09-09T05:21:24;5.4;;;9;;
51194;SDS011;37259;49.972;19.850;2022-09-09T05:22:23;5.4;;;9;;
51194;SDS011;37259;49.972;19.850;2022-09-09T05:23:23;5.4;;;9;;
51194;SDS011;37259;49.972;19.850;2022-09-09T05:24:23;5.4;;;9;;
51194;SDS011;37259;49.972;19.850;2022-09-09T05:25:23;5.6;;;9.2;;
51194;SDS011;37259;49.972;19.850;2022-09-09T05:26:23;5.6;;;9.2;;
51194;SDS011;37259;49.972;19.850;2022-09-09T05:27:23;5.6;;;9.2;;
51194;SDS011;37259;49.972;19.850;2022-09-09T05:28:23;5.6;;;9.2;;
51194;SDS011;37259;49.972;19.850;2022-09-09T05:29:23;5.6;;;9.2;;
51194;SDS011;37259;49.972;19.850;2022-09-09T05:30:23;5.6;;;9.2;;
51194;SDS011;37259;49.972;19.850;2022-09-09T05:31:23;5.6;;;9.2;;
51194;SDS011;37259;49.972;19.850;2022-09-09T05:32:23;5.6;;;9.2;;
51194;SDS011;37259;49.972;19.850;2022-09-09T05:33:24;5.6;;;9.2;;
51194;SDS011;37259;49.972;19.850;2022-09-09T05:34:23;5.6;;;9.2;;
51194;SDS011;37259;49.972;19.850;2022-09-09T05:35:23;5.6;;;9.2;;
51194;SDS011;37259;49.972;19.850;2022-09-09T05:36:23;5.6;;;9.2;;
51194;SDS011;37259;49.972;19.850;2022-09-09T05:37:23;5.6;;;9.2;;
51194;SDS011;37259;49.972;19.850;2022-09-09T05:38:23;5.6;;;9.2;;
51194;SDS011;37259;49.972;19.850;2022-09-09T05:39:23;5.6;;;9.2;;
51194;SDS011;37259;49.972;19.850;2022-09-09T05:40:23;5.6;;;9.2;;
51194;SDS011;37259;49.972;19.850;2022-09-09T05:41:23;5.6;;;9.2;;
51194;SDS011;37259;49.972;19.850;2022-09-09T05:42:23;5.6;;;9.2;;
51194;SDS011;37259;49.972;19.850;2022-09-09T05:43:24;5.6;;;9.2;;
51194;SDS011;37259;49.972;19.850;2022-09-09T05:44:23;5.6;;;9.2;;
51194;SDS011;37259;49.972;19.850;2022-09-09T05:45:23;5.6;;;9.2;;
51194;SDS011;37259;49.972;19.850;2022-09-09T05:46:23;5.6;;;9.2;;
51194;SDS011;37259;49.972;19.850;2022-09-09T05:47:23;5.6;;;9.2;;
51194;SDS011;37259;49.972;19.850;2022-09-09T05:48:23;5.6;;;9.2;;
51194;SDS011;37259;49.972;19.850;2022-09-09T05:49:23;5.6;;;9.2;;
51194;SDS011;37259;49.972;19.850;2022-09-09T05:50:23;5.6;;;9.2;;
51194;SDS011;37259;49.972;19.850;2022-09-09T05:51:25;5.6;;;9.2;;
51194;SDS011;37259;49.972;19.850;2022-09-09T05:52:23;5.6;;;9.2;;
51194;SDS011;37259;49.972;19.850;2022-09-09T05:53:23;5.6;;;9.2;;
51194;SDS011;37259;49.972;19.850;2022-09-09T05:54:23;5.6;;;9.2;;
51194;SDS011;37259;49.972;19.850;2022-09-09T05:55:23;5.1;;;10.5;;
51194;SDS011;37259;49.972;19.850;2022-09-09T05:56:24;5.1;;;10.5;;
51194;SDS011;37259;49.972;19.850;2022-09-09T05:57:23;5.1;;;10.5;;
51194;SDS011;37259;49.972;19.850;2022-09-09T05:58:23;5.1;;;10.5;;
51194;SDS011;37259;49.972;19.850;2022-09-09T05:59:23;5.1;;;10.5;;
51194;SDS011;37259;49.972;19.850;2022-09-09T06:00:23;5.1;;;10.5;;
51194;SDS011;37259;49.972;19.850;2022-09-09T06:01:25;5.1;;;10.5;;
51194;SDS011;37259;49.972;19.850;2022-09-09T06:02:23;5.1;;;10.5;;
51194;SDS011;37259;49.972;19.850;2022-09-09T06:03:23;5.1;;;10.5;;
51194;SDS011;37259;49.972;19.850;2022-09-09T06:04:23;5.1;;;10.5;;
51194;SDS011;37259;49.972;19.850;2022-09-09T06:05:23;5.1;;;10.5;;
51194;SDS011;37259;49.972;19.850;2022-09-09T06:06:24;5.1;;;10.5;;
51194;SDS011;37259;49.972;19.850;2022-09-09T06:07:23;5.1;;;10.5;;
51194;SDS011;37259;49.972;19.850;2022-09-09T06:08:23;5.1;;;10.5;;
51194;SDS011;37259;49.972;19.850;2022-09-09T06:09:23;5.1;;;10.5;;
51194;SDS011;37259;49.972;19.850;2022-09-09T06:10:23;5.1;;;10.5;;
51194;SDS011;37259;49.972;19.850;2022-09-09T06:11:24;5.1;;;10.5;;
51194;SDS011;37259;49.972;19.850;2022-09-09T06:12:23;5.1;;;10.5;;
51194;SDS011;37259;49.972;19.850;2022-09-09T06:13:23;5.1;;;10.5;;
51194;SDS011;37259;49.972;19.850;2022-09-09T06:14:23;5.1;;;10.5;;
51194;SDS011;37259;49.972;19.850;2022-09-09T06:15:23;5.1;;;10.5;;